createdAt,value
2023-03-10T00:01:48.107Z,9.24
2023-03-10T00:04:33.289Z,9.22
2023-03-10T00:07:18.864Z,9.19
2023-03-10T00:10:04.306Z,9.16
2023-03-10T00:12:49.442Z,9.12
2023-03-10T00:15:34.391Z,9.10
2023-03-10T00:18:19.582Z,9.14
2023-03-10T00:21:05.060Z,9.18
2023-03-10T00:23:50.673Z,9.15
2023-03-10T00:26:37.527Z,9.12
2023-03-10T00:29:22.465Z,9.09
2023-03-10T00:32:08.048Z,9.09
2023-03-10T00:34:53.343Z,9.10
2023-03-10T00:37:38.819Z,9.09
2023-03-10T00:40:24.379Z,9.08
2023-03-10T00:43:09.403Z,9.07
2023-03-10T00:45:54.927Z,9.04
2023-03-10T00:48:40.172Z,9.08
2023-03-10T00:51:25.392Z,9.04
2023-03-10T00:54:10.919Z,8.94
2023-03-10T00:56:56.195Z,8.96
2023-03-10T00:59:50.060Z,9.08
2023-03-10T01:02:35.913Z,9.04
2023-03-10T01:05:21.239Z,8.94
2023-03-10T01:08:06.400Z,9.01
2023-03-10T01:10:51.912Z,9.00
2023-03-10T01:13:37.615Z,8.94
2023-03-10T01:16:24.834Z,8.87
2023-03-10T01:19:09.917Z,8.87
2023-03-10T01:21:54.953Z,8.88
2023-03-10T01:24:39.947Z,8.88
2023-03-10T01:27:24.842Z,8.77
2023-03-10T01:30:11.131Z,8.81
2023-03-10T01:32:56.337Z,8.82
2023-03-10T01:35:41.839Z,8.83
2023-03-10T01:38:27.381Z,8.81
2023-03-10T01:41:12.587Z,8.80
2023-03-10T01:43:58.101Z,8.80
2023-03-10T01:46:51.281Z,8.71
2023-03-10T01:49:41.151Z,8.79
2023-03-10T01:52:30.453Z,8.84
2023-03-10T01:55:19.175Z,8.76
2023-03-10T01:58:06.510Z,8.81
2023-03-10T02:00:54.086Z,8.74
2023-03-10T02:03:52.100Z,8.83
2023-03-10T02:06:38.726Z,8.76
2023-03-10T02:09:25.205Z,8.87
2023-03-10T02:12:12.553Z,8.82
2023-03-10T02:14:58.245Z,8.83
2023-03-10T02:17:43.388Z,8.73
2023-03-10T02:20:43.892Z,8.75
2023-03-10T02:23:34.513Z,8.71
2023-03-10T02:26:33.262Z,8.68
2023-03-10T02:29:35.557Z,8.77
2023-03-10T02:32:22.982Z,8.76
2023-03-10T02:35:09.173Z,8.75
2023-03-10T02:37:54.375Z,8.78
2023-03-10T02:40:50.796Z,8.77
2023-03-10T02:43:35.911Z,8.77
2023-03-10T02:46:22.517Z,8.78
2023-03-10T02:49:10.439Z,8.79
2023-03-10T02:51:56.855Z,8.81
2023-03-10T02:54:42.080Z,8.82
2023-03-10T02:57:27.329Z,8.81
2023-03-10T03:00:13.160Z,8.81
2023-03-10T03:02:58.604Z,8.81
2023-03-10T03:05:44.014Z,8.77
2023-03-10T03:08:29.121Z,8.72
2023-03-10T03:11:14.740Z,8.78
2023-03-10T03:13:59.883Z,8.76
2023-03-10T03:16:45.253Z,8.73
2023-03-10T03:19:30.530Z,8.74
2023-03-10T03:22:15.665Z,8.73
2023-03-10T03:25:00.757Z,8.75
2023-03-10T03:27:46.045Z,8.75
2023-03-10T03:30:31.612Z,8.79
2023-03-10T03:33:16.611Z,8.80
2023-03-10T03:36:02.295Z,8.78
2023-03-10T03:38:47.425Z,8.79
2023-03-10T03:41:33.523Z,8.84
2023-03-10T03:44:18.829Z,8.81
2023-03-10T03:47:04.844Z,8.84
2023-03-10T03:49:49.696Z,8.86
2023-03-10T03:52:35.092Z,8.83
2023-03-10T03:55:20.075Z,8.87
2023-03-10T03:58:05.435Z,8.88
2023-03-10T04:00:51.837Z,8.92
2023-03-10T04:03:36.985Z,8.89
2023-03-10T04:06:22.244Z,8.86
2023-03-10T04:09:08.323Z,8.83
2023-03-10T04:11:53.748Z,8.82
2023-03-10T04:14:38.930Z,8.64
2023-03-10T04:17:23.805Z,8.79
2023-03-10T04:20:10.109Z,8.77
2023-03-10T04:22:54.974Z,8.78
2023-03-10T04:25:41.464Z,8.68
2023-03-10T04:28:26.640Z,8.80
2023-03-10T04:31:16.803Z,8.84
2023-03-10T04:34:02.325Z,8.87
2023-03-10T04:36:47.654Z,8.89
2023-03-10T04:39:32.872Z,8.79
2023-03-10T04:42:18.106Z,8.89
2023-03-10T04:45:03.562Z,8.90
2023-03-10T04:47:48.548Z,8.93
2023-03-10T04:50:33.685Z,8.92
2023-03-10T04:53:18.825Z,8.89
2023-03-10T04:56:07.584Z,8.88
2023-03-10T04:58:52.753Z,8.88
2023-03-10T05:01:37.862Z,8.90
2023-03-10T05:04:23.403Z,8.82
2023-03-10T05:07:08.494Z,8.94
2023-03-10T05:09:53.566Z,8.94
2023-03-10T05:12:39.449Z,8.90
2023-03-10T05:15:24.767Z,8.85
2023-03-10T05:18:11.186Z,8.84
2023-03-10T05:20:58.102Z,8.89
2023-03-10T05:23:43.239Z,8.85
2023-03-10T05:26:28.488Z,8.84
2023-03-10T05:29:13.650Z,8.87
2023-03-10T05:31:58.850Z,8.89
2023-03-10T05:34:43.894Z,8.80
2023-03-10T05:37:29.269Z,8.87
2023-03-10T05:40:19.748Z,8.84
2023-03-10T05:43:04.722Z,8.77
2023-03-10T05:45:57.730Z,8.84
2023-03-10T05:48:42.863Z,8.89
2023-03-10T05:51:27.811Z,8.90
2023-03-10T05:54:12.901Z,8.89
2023-03-10T05:56:57.879Z,8.90
2023-03-10T05:59:43.258Z,8.87
2023-03-10T06:02:28.526Z,8.87
2023-03-10T06:05:13.704Z,8.90
2023-03-10T06:07:59.909Z,8.90
2023-03-10T06:10:45.039Z,8.75
2023-03-10T06:13:31.251Z,8.80
2023-03-10T06:16:17.280Z,8.86
2023-03-10T06:19:02.133Z,8.87
2023-03-10T06:21:47.951Z,8.83
2023-03-10T06:24:32.793Z,8.80
2023-03-10T06:27:17.952Z,8.55
2023-03-10T06:30:04.324Z,8.61
2023-03-10T06:32:49.506Z,8.45
2023-03-10T06:35:34.735Z,8.29
2023-03-10T06:38:20.604Z,8.07
2023-03-10T06:41:06.944Z,7.88
2023-03-10T06:43:51.990Z,7.68
2023-03-10T06:46:38.361Z,7.77
2023-03-10T06:49:28.930Z,7.67
2023-03-10T06:52:13.943Z,7.57
2023-03-10T06:54:58.991Z,7.51
2023-03-10T06:57:44.371Z,7.39
2023-03-10T07:00:29.877Z,7.22
2023-03-10T07:03:15.113Z,7.15
2023-03-10T07:06:00.436Z,7.21
2023-03-10T07:08:45.589Z,7.28
2023-03-10T07:11:31.312Z,7.18
2023-03-10T07:14:16.182Z,6.97
2023-03-10T07:17:02.838Z,6.88
2023-03-10T07:19:48.350Z,6.82
2023-03-10T07:22:33.547Z,6.75
2023-03-10T07:25:18.640Z,6.68
2023-03-10T07:28:05.163Z,6.57
2023-03-10T07:30:50.782Z,6.62
2023-03-10T07:33:36.177Z,6.66
2023-03-10T07:36:22.412Z,6.53
2023-03-10T07:39:07.955Z,6.56
2023-03-10T07:41:53.125Z,6.47
2023-03-10T07:44:38.492Z,6.39
2023-03-10T07:47:23.555Z,6.35
2023-03-10T07:50:09.438Z,6.37
2023-03-10T07:52:55.508Z,6.39
2023-03-10T07:55:40.709Z,6.30
2023-03-10T07:58:26.276Z,6.21
2023-03-10T08:01:17.752Z,6.24
2023-03-10T08:04:03.163Z,6.21
2023-03-10T08:06:48.553Z,6.15
2023-03-10T08:09:33.984Z,6.14
2023-03-10T08:12:20.919Z,6.05
2023-03-10T08:15:07.028Z,6.10
2023-03-10T08:17:59.859Z,6.00
2023-03-10T08:20:44.994Z,6.00
2023-03-10T08:23:30.219Z,6.01
2023-03-10T08:26:17.385Z,5.88
2023-03-10T08:29:02.865Z,6.02
2023-03-10T08:31:48.496Z,5.99
2023-03-10T08:34:35.433Z,5.91
2023-03-10T08:37:20.791Z,6.00
2023-03-10T08:40:08.188Z,6.01
2023-03-10T08:42:53.641Z,5.85
2023-03-10T08:45:38.972Z,5.77
2023-03-10T08:48:24.311Z,5.65
2023-03-10T08:51:09.381Z,5.76
2023-03-10T08:53:56.434Z,5.79
2023-03-10T08:56:42.139Z,5.66
2023-03-10T08:59:27.200Z,5.56
2023-03-10T09:02:15.211Z,5.69
2023-03-10T09:05:00.404Z,5.56
2023-03-10T09:07:45.371Z,5.27
2023-03-10T09:10:30.469Z,5.11
2023-03-10T09:13:15.668Z,5.06
2023-03-10T09:16:01.010Z,5.00
2023-03-10T09:18:53.085Z,5.16
2023-03-10T09:21:38.996Z,5.14
2023-03-10T09:24:24.941Z,4.93
2023-03-10T09:27:10.342Z,4.83
2023-03-10T09:29:56.006Z,4.74
2023-03-10T09:32:42.430Z,4.65
2023-03-10T09:35:27.881Z,4.39
2023-03-10T09:38:13.078Z,4.72
2023-03-10T09:41:08.699Z,4.67
2023-03-10T09:44:02.336Z,4.68
2023-03-10T09:47:06.858Z,4.53
2023-03-10T09:49:55.274Z,4.58
2023-03-10T09:52:43.457Z,4.36
2023-03-10T09:55:42.364Z,4.16
2023-03-10T09:58:43.955Z,3.99
2023-03-10T10:01:32.517Z,4.16
2023-03-10T10:04:49.759Z,4.00
2023-03-10T10:07:49.704Z,3.92
2023-03-10T10:10:38.473Z,3.73
2023-03-10T10:13:26.090Z,3.71
2023-03-10T10:16:39.290Z,3.71
2023-03-10T10:19:26.672Z,3.81
2023-03-10T10:22:27.677Z,3.79
2023-03-10T10:25:31.374Z,3.79
2023-03-10T10:28:41.663Z,3.76
2023-03-10T10:31:29.209Z,3.65
2023-03-10T10:34:22.939Z,3.64
2023-03-10T10:37:22.954Z,3.68
2023-03-10T10:40:23.302Z,3.79
2023-03-10T10:43:17.901Z,3.72
2023-03-10T10:46:08.994Z,3.77
2023-03-10T10:49:03.122Z,3.99
2023-03-10T10:52:03.112Z,4.35
2023-03-10T10:54:58.830Z,4.58
2023-03-10T10:57:54.484Z,4.82
2023-03-10T11:00:39.630Z,4.99
2023-03-10T11:03:33.567Z,4.99
2023-03-10T11:06:29.214Z,4.80
2023-03-10T11:09:18.789Z,4.82
2023-03-10T11:12:06.767Z,4.75
2023-03-10T11:14:57.948Z,4.74
2023-03-10T11:17:49.409Z,4.85
2023-03-10T11:21:00.347Z,4.83
2023-03-10T11:23:57.533Z,4.74
2023-03-10T11:26:58.756Z,4.87
2023-03-10T11:29:43.955Z,4.98
2023-03-10T11:33:02.155Z,5.00
2023-03-10T11:35:52.574Z,4.89
2023-03-10T11:38:39.890Z,5.00
2023-03-10T11:41:30.859Z,5.00
2023-03-10T11:44:53.024Z,4.81
2023-03-10T11:47:44.733Z,4.98
2023-03-10T11:50:48.857Z,4.94
2023-03-10T11:53:46.704Z,5.19
2023-03-10T11:56:31.967Z,5.13
2023-03-10T11:59:22.005Z,5.04
2023-03-10T12:02:29.598Z,5.06
2023-03-10T12:05:22.380Z,5.06
2023-03-10T12:08:09.251Z,4.84
2023-03-10T12:10:55.649Z,4.95
2023-03-10T12:13:47.013Z,4.93
2023-03-10T12:16:41.458Z,4.85
2023-03-10T12:19:26.471Z,4.84
2023-03-10T12:22:20.971Z,4.86
2023-03-10T12:25:28.896Z,4.66
2023-03-10T12:28:17.170Z,4.71
2023-03-10T12:31:52.196Z,4.79
2023-03-10T12:34:37.423Z,4.99
2023-03-10T12:37:22.950Z,5.06
2023-03-10T12:40:46.396Z,5.17
2023-03-10T12:43:46.777Z,5.87
2023-03-10T12:46:44.492Z,6.61
2023-03-10T12:49:42.715Z,5.69
2023-03-10T12:52:47.873Z,5.26
2023-03-10T12:55:33.816Z,5.29
2023-03-10T13:57:43.417Z,4.95
2023-03-10T14:05:11.051Z,5.30
2023-03-10T14:08:11.560Z,5.80
2023-03-10T14:15:55.359Z,5.29
2023-03-10T14:26:57.650Z,5.84
2023-03-10T14:30:02.874Z,6.21
2023-03-10T14:33:20.928Z,6.26
2023-03-10T14:36:45.601Z,5.93
2023-03-10T14:39:38.512Z,6.14
2023-03-10T14:43:13.475Z,6.16
2023-03-10T15:00:46.205Z,6.46
2023-03-10T15:03:31.488Z,6.39
2023-03-10T15:06:19.276Z,6.30
2023-03-10T15:09:04.861Z,6.26
2023-03-10T15:11:50.010Z,6.21
2023-03-10T15:14:35.348Z,6.05
2023-03-10T15:17:21.371Z,5.89
2023-03-10T15:20:08.456Z,6.03
2023-03-10T15:22:53.519Z,5.90
2023-03-10T15:25:38.794Z,5.74
2023-03-10T15:28:23.920Z,5.78
2023-03-10T15:31:09.266Z,5.78
2023-03-10T15:33:54.613Z,5.71
2023-03-10T15:36:39.747Z,5.61
2023-03-10T15:39:31.605Z,5.63
2023-03-10T15:42:17.594Z,5.53
2023-03-10T15:45:05.889Z,5.56
2023-03-10T15:47:52.052Z,5.54
2023-03-10T15:50:37.297Z,5.44
2023-03-10T15:53:22.648Z,5.55
2023-03-10T15:56:08.693Z,5.57
2023-03-10T15:58:54.017Z,5.50
2023-03-10T16:01:39.732Z,5.49
2023-03-10T16:04:24.928Z,5.60
2023-03-10T16:07:10.897Z,5.64
2023-03-10T16:09:55.717Z,5.70
2023-03-10T16:12:41.096Z,5.81
2023-03-10T16:15:26.002Z,5.91
2023-03-10T16:18:10.964Z,5.85
2023-03-10T16:20:58.651Z,5.84
2023-03-10T16:23:44.441Z,5.87
2023-03-10T16:26:29.714Z,6.01
2023-03-10T16:29:15.448Z,6.03
2023-03-10T16:32:00.851Z,5.83
2023-03-10T16:34:46.213Z,5.85
2023-03-10T16:37:31.532Z,5.83
2023-03-10T16:40:16.920Z,5.91
2023-03-10T16:43:02.100Z,5.96
2023-03-10T16:45:49.362Z,6.00
2023-03-10T16:48:37.113Z,5.94
2023-03-10T16:51:25.494Z,6.04
2023-03-10T16:54:16.429Z,6.02
2023-03-10T16:57:01.634Z,5.87
2023-03-10T16:59:47.505Z,5.79
2023-03-10T17:02:32.705Z,5.91
2023-03-10T17:05:17.852Z,5.82
2023-03-10T17:08:05.975Z,5.66
2023-03-10T17:10:51.464Z,5.54
2023-03-10T17:13:37.887Z,5.55
2023-03-10T17:16:28.484Z,5.63
2023-03-10T17:19:19.421Z,5.55
2023-03-10T17:22:04.560Z,5.52
2023-03-10T17:24:54.277Z,5.42
2023-03-10T17:27:39.406Z,5.43
2023-03-10T17:30:25.185Z,5.41
2023-03-10T17:33:10.513Z,5.36
2023-03-10T17:35:55.653Z,5.32
2023-03-10T17:38:41.785Z,5.23
2023-03-10T17:41:28.643Z,5.21
2023-03-10T17:44:14.713Z,5.31
2023-03-10T17:47:00.051Z,5.20
2023-03-10T17:49:45.488Z,5.22
2023-03-10T17:52:30.851Z,5.15
2023-03-10T17:55:16.141Z,4.98
2023-03-10T17:58:01.457Z,4.84
2023-03-10T18:00:48.272Z,4.74
2023-03-10T18:03:35.070Z,4.64
2023-03-10T18:06:24.404Z,4.50
2023-03-10T18:09:13.822Z,4.38
2023-03-10T18:11:59.045Z,4.30
2023-03-10T18:14:44.217Z,4.22
2023-03-10T18:17:29.446Z,4.18
2023-03-10T18:20:15.080Z,4.20
2023-03-10T18:23:01.054Z,4.20
2023-03-10T18:25:47.055Z,4.14
2023-03-10T18:28:32.483Z,4.09
2023-03-10T18:31:23.441Z,3.98
2023-03-10T18:34:10.220Z,3.90
2023-03-10T18:36:55.655Z,3.86
2023-03-10T18:39:41.408Z,3.72
2023-03-10T18:42:28.228Z,3.67
2023-03-10T18:45:13.416Z,3.67
2023-03-10T18:47:58.671Z,3.57
2023-03-10T18:50:44.204Z,3.56
2023-03-10T18:53:29.816Z,3.45
2023-03-10T18:56:15.191Z,3.46
2023-03-10T18:59:00.511Z,3.38
2023-03-10T19:01:45.887Z,3.41
2023-03-10T19:04:31.139Z,3.37
2023-03-10T19:07:20.377Z,3.32
2023-03-10T19:10:05.851Z,3.28
2023-03-10T19:12:51.206Z,3.20
2023-03-10T19:15:37.563Z,3.16
2023-03-10T19:18:23.493Z,3.16
2023-03-10T19:21:09.867Z,3.11
2023-03-10T19:23:55.076Z,3.01
2023-03-10T19:26:40.485Z,2.98
2023-03-10T19:29:25.684Z,2.94
2023-03-10T19:32:11.063Z,2.93
2023-03-10T19:34:56.329Z,2.92
2023-03-10T19:37:43.525Z,2.91
2023-03-10T19:40:28.712Z,2.93
2023-03-10T19:43:13.976Z,2.89
2023-03-10T19:46:04.806Z,2.89
2023-03-10T19:48:49.835Z,2.83
2023-03-10T19:51:35.463Z,2.74
2023-03-10T19:54:20.534Z,2.69
2023-03-10T19:57:05.603Z,2.59
2023-03-10T19:59:50.921Z,2.59
2023-03-10T20:02:36.233Z,2.58
2023-03-10T20:05:21.793Z,2.60
2023-03-10T20:08:07.409Z,2.57
2023-03-10T20:10:52.930Z,2.49
2023-03-10T20:13:37.833Z,2.24
2023-03-10T20:16:24.282Z,2.06
2023-03-10T20:19:09.542Z,2.03
2023-03-10T20:21:54.786Z,2.02
2023-03-10T20:24:40.147Z,1.87
2023-03-10T20:27:25.405Z,1.81
2023-03-10T20:30:16.509Z,1.94
2023-03-10T20:33:02.046Z,1.92
2023-03-10T20:35:47.676Z,1.89
2023-03-10T20:38:33.132Z,1.77
2023-03-10T20:41:19.761Z,1.65
2023-03-10T20:44:07.307Z,1.51
2023-03-10T20:46:52.366Z,1.56
2023-03-10T20:49:37.489Z,1.62
2023-03-10T20:52:22.918Z,1.64
2023-03-10T20:55:15.393Z,1.74
2023-03-10T20:58:01.084Z,1.72
2023-03-10T21:00:47.639Z,1.64
2023-03-10T21:03:32.751Z,1.58
2023-03-10T21:06:18.003Z,1.51
2023-03-10T21:09:05.799Z,1.49
2023-03-10T21:11:51.108Z,1.48
2023-03-10T21:14:36.430Z,1.50
2023-03-10T21:17:22.934Z,1.56
2023-03-10T21:20:09.412Z,1.73
2023-03-10T21:22:54.714Z,1.66
2023-03-10T21:25:40.181Z,1.58
2023-03-10T21:28:25.475Z,1.56
2023-03-10T21:31:12.679Z,1.59
2023-03-10T21:33:57.828Z,1.69
2023-03-10T21:36:42.986Z,1.64
2023-03-10T21:39:28.572Z,1.71
2023-03-10T21:42:14.449Z,1.80
2023-03-10T21:44:59.753Z,1.83
2023-03-10T21:47:45.689Z,1.82
2023-03-10T21:50:31.730Z,1.67
2023-03-10T21:53:17.088Z,1.50
2023-03-10T21:56:02.353Z,1.45
2023-03-10T21:58:48.211Z,1.32
2023-03-10T22:01:33.590Z,1.26
2023-03-10T22:04:18.954Z,1.25
2023-03-10T22:07:04.308Z,1.28
2023-03-10T22:09:49.520Z,1.31
2023-03-10T22:12:35.025Z,1.29
2023-03-10T22:15:23.861Z,1.09
2023-03-10T22:18:09.313Z,1.03
2023-03-10T22:20:54.564Z,1.04
2023-03-10T22:23:39.914Z,0.96
2023-03-10T22:26:25.195Z,0.93
2023-03-10T22:29:10.638Z,0.94
2023-03-10T22:31:57.822Z,0.88
2023-03-10T22:34:42.749Z,0.92
2023-03-10T22:37:27.923Z,0.94
2023-03-10T22:40:17.719Z,0.97
2023-03-10T22:43:02.976Z,0.84
2023-03-10T22:45:48.158Z,0.88
2023-03-10T22:48:33.499Z,1.01
2023-03-10T22:51:19.180Z,0.86
2023-03-10T22:54:04.503Z,0.74
2023-03-10T22:56:49.733Z,0.66
2023-03-10T22:59:35.045Z,0.70
2023-03-10T23:02:20.365Z,0.75
2023-03-10T23:05:06.063Z,0.72
2023-03-10T23:07:53.029Z,0.70
2023-03-10T23:10:40.396Z,0.60
2023-03-10T23:13:25.878Z,0.52
2023-03-10T23:16:11.393Z,0.55
2023-03-10T23:18:56.629Z,0.53
2023-03-10T23:21:41.779Z,0.55
2023-03-10T23:24:26.984Z,0.55
2023-03-10T23:27:12.631Z,0.46
2023-03-10T23:29:57.882Z,0.48
2023-03-10T23:32:45.803Z,0.50
2023-03-10T23:35:33.284Z,0.50
2023-03-10T23:38:18.474Z,0.52
2023-03-10T23:41:04.498Z,0.47
2023-03-10T23:43:51.788Z,0.55
2023-03-10T23:46:36.994Z,0.52
2023-03-10T23:49:22.502Z,0.40
2023-03-10T23:52:07.704Z,0.44
2023-03-10T23:54:53.766Z,0.39
2023-03-10T23:57:38.741Z,0.38
